Time;durP1;ratioP1;P1;durP2;ratioP2;P2;SDS_P1;SDS_P2;PMS_P1;PMS_P2;Temp;Humidity;BMP_temperature;BMP_pressure;BME280_temperature;BME280_humidity;BME280_pressure;Samples;Min_cycle;Max_cycle;Signal;HPM_P1;HPM_P2
2023/11/27 00:02:12;;;;;;;6.50;2.70;;;;;;;3.49;74.35;98592.34;5080795;28;20044;-92
2023/11/27 00:04:37;;;;;;;5.75;2.40;;;;;;;4.03;73.96;98679.03;5074965;28;20056;-92
2023/11/27 00:07:04;;;;;;;6.55;2.10;;;;;;;4.24;73.52;98678.09;5074240;28;20021;-92
2023/11/27 00:09:34;;;;;;;5.63;2.70;;;;;;;3.60;73.54;98539.75;5073687;28;20379;-93
2023/11/27 00:12:06;;;;;;;4.15;1.58;;;;;;;3.97;74.18;98600.13;5072074;28;20040;-92
2023/11/27 00:14:36;;;;;;;5.60;2.10;;;;;;;4.20;73.83;98633.38;5073356;28;20131;-91
2023/11/27 00:17:05;;;;;;;4.53;2.17;;;;;;;3.78;73.90;98541.44;5078565;28;20035;-93
2023/11/27 00:19:31;;;;;;;5.50;2.10;;;;;;;4.29;73.57;98607.91;5078321;28;20485;-93
2023/11/27 00:21:57;;;;;;;6.15;2.38;;;;;;;3.84;74.26;98541.41;5073732;28;20040;-93
2023/11/27 00:24:22;;;;;;;7.60;2.60;;;;;;;4.14;74.41;98578.13;5084243;28;20105;-93
2023/11/27 00:26:48;;;;;;;6.05;2.80;;;;;;;4.71;74.78;98666.50;5073742;28;20060;-92
2023/11/27 00:29:15;;;;;;;7.45;3.30;;;;;;;4.18;75.35;98587.75;5074171;28;20044;-93
2023/11/27 00:31:45;;;;;;;4.07;2.33;;;;;;;4.77;75.14;98678.78;5085162;28;20131;-94
2023/11/27 00:34:10;;;;;;;6.53;2.50;;;;;;;4.77;76.03;98691.94;5078873;28;20498;-93
2023/11/27 00:36:39;;;;;;;5.13;2.20;;;;;;;4.12;76.78;98583.41;5074000;28;20078;-93
2023/11/27 00:39:08;;;;;;;5.15;2.53;;;;;;;4.14;77.09;98579.00;5073528;28;20367;-93
2023/11/27 00:41:35;;;;;;;8.73;4.03;;;;;;;4.57;78.40;98649.88;5075012;28;20075;-95
2023/11/27 00:44:03;;;;;;;9.68;3.75;;;;;;;4.36;78.33;98599.94;5075105;28;20037;-92
2023/11/27 00:46:28;;;;;;;5.10;2.00;;;;;;;3.80;78.59;98528.28;5073876;28;20067;-93
2023/11/27 00:48:56;;;;;;;4.85;1.75;;;;;;;4.17;78.79;98629.00;5073633;28;20060;-93
2023/11/27 00:51:22;;;;;;;5.55;1.83;;;;;;;3.59;78.67;98523.97;5075299;28;20045;-92
2023/11/27 00:53:51;;;;;;;10.93;4.57;;;;;;;4.36;79.52;98669.28;5075966;28;20025;-92
2023/11/27 00:56:20;;;;;;;9.10;4.13;;;;;;;3.89;78.41;98579.09;5079475;28;20039;-91
2023/11/27 00:58:49;;;;;;;7.15;4.13;;;;;;;4.10;76.34;98604.47;5085496;28;20044;-93
2023/11/27 01:01:17;;;;;;;7.93;4.78;;;;;;;4.36;77.25;98690.34;5084612;28;20043;-92
2023/11/27 01:03:43;;;;;;;9.25;4.57;;;;;;;4.16;78.54;98663.22;5075737;28;20136;-93
2023/11/27 01:06:14;;;;;;;8.93;4.53;;;;;;;4.25;79.61;98711.44;5088100;28;20458;-93
2023/11/27 01:08:41;;;;;;;13.10;5.25;;;;;;;3.51;80.63;98587.06;5080830;28;20101;-93
2023/11/27 01:11:07;;;;;;;9.40;4.53;;;;;;;4.02;81.52;98703.59;5087274;28;20047;-93
2023/11/27 01:13:33;;;;;;;16.15;4.70;;;;;;;4.20;80.71;98701.78;5082416;28;20044;-92
2023/11/27 01:15:59;;;;;;;5.03;2.55;;;;;;;2.79;82.08;98534.59;5082053;28;20039;-92
2023/11/27 01:18:25;;;;;;;4.53;2.03;;;;;;;3.50;82.41;98658.94;5086973;28;20039;-93
2023/11/27 01:20:53;;;;;;;5.95;2.53;;;;;;;3.16;82.63;98581.88;5092197;28;20032;-94
2023/11/27 01:23:21;;;;;;;8.00;1.92;;;;;;;3.38;82.02;98630.91;5080152;28;20040;-92
2023/11/27 01:25:50;;;;;;;10.82;4.22;;;;;;;3.08;81.94;98593.25;5091632;28;20093;-92
2023/11/27 01:28:16;;;;;;;10.18;4.38;;;;;;;2.80;82.06;98528.47;5079580;28;20037;-92
2023/11/27 01:30:41;;;;;;;8.48;4.13;;;;;;;3.69;83.29;98707.16;5086863;28;20123;-93
2023/11/27 01:33:11;;;;;;;7.60;3.67;;;;;;;2.85;82.27;98537.22;5084478;28;20040;-92
2023/11/27 01:35:40;;;;;;;10.18;5.10;;;;;;;2.64;82.19;98515.31;5081659;28;20040;-93
2023/11/27 01:38:06;;;;;;;10.25;4.82;;;;;;;2.64;82.68;98533.69;5085129;28;20386;-92
2023/11/27 01:40:34;;;;;;;10.32;4.20;;;;;;;3.13;83.15;98609.03;5084141;28;20041;-92
2023/11/27 01:43:14;;;;;;;6.65;3.75;;;;;;;3.03;82.97;98591.50;5082660;28;20048;-93
2023/11/27 01:45:40;;;;;;;12.52;4.30;;;;;;;3.17;84.73;98651.94;5090741;28;20055;-93
2023/11/27 01:48:06;;;;;;;11.15;3.85;;;;;;;3.33;84.45;98644.94;5092010;28;20073;-92
2023/11/27 01:50:33;;;;;;;6.35;2.95;;;;;;;2.65;84.66;98556.47;5087080;28;20047;-93
2023/11/27 01:52:59;;;;;;;6.72;2.80;;;;;;;3.18;84.66;98659.81;5084370;28;20070;-93
2023/11/27 01:55:30;;;;;;;7.57;2.45;;;;;;;2.41;85.08;98553.81;5082414;28;20036;-93
2023/11/27 01:57:58;;;;;;;6.32;2.58;;;;;;;2.40;85.68;98557.28;5077783;28;20048;-92
2023/11/27 02:00:28;;;;;;;5.55;2.20;;;;;;;2.09;85.35;98523.13;5077964;28;20047;-93
2023/11/27 02:02:56;;;;;;;8.02;2.40;;;;;;;2.92;85.13;98656.28;5086344;28;20044;-93
2023/11/27 02:05:21;;;;;;;6.15;2.15;;;;;;;2.83;83.05;98609.88;5081703;28;20063;-92
2023/11/27 02:07:49;;;;;;;6.28;2.25;;;;;;;2.65;84.18;98602.84;5077656;28;20064;-92
2023/11/27 02:10:16;;;;;;;5.75;2.35;;;;;;;2.02;84.06;98492.50;5080198;28;20055;-93
2023/11/27 02:12:44;;;;;;;7.05;2.40;;;;;;;2.00;83.80;98479.38;5077961;28;20490;-93
2023/11/27 02:15:15;;;;;;;5.57;2.35;;;;;;;2.85;84.78;98642.28;5077596;28;20048;-93
2023/11/27 02:17:44;;;;;;;7.13;2.60;;;;;;;2.06;86.47;98523.13;5077408;28;20040;-92
2023/11/27 02:20:12;;;;;;;5.55;2.20;;;;;;;1.74;84.95;98454.84;5078186;28;20053;-94
2023/11/27 02:22:38;;;;;;;5.13;2.67;;;;;;;2.45;84.96;98573.91;5080766;28;20043;-93
2023/11/27 02:25:07;;;;;;;4.75;2.10;;;;;;;2.54;84.71;98581.84;5080423;28;20039;-93
2023/11/27 02:27:37;;;;;;;5.32;3.22;;;;;;;3.08;84.42;98666.81;5075833;28;20389;-92
2023/11/27 02:30:09;;;;;;;6.47;2.28;;;;;;;2.56;86.91;98653.59;5081106;28;20500;-92
2023/11/27 02:32:37;;;;;;;7.55;1.85;;;;;;;1.92;85.42;98491.59;5079827;28;20505;-93
2023/11/27 02:35:09;;;;;;;5.50;2.42;;;;;;;1.81;85.82;98506.41;5078542;28;20048;-92
2023/11/27 02:37:35;;;;;;;4.70;1.55;;;;;;;2.78;86.00;98651.88;5078859;28;20131;-94
2023/11/27 02:40:01;;;;;;;6.45;2.42;;;;;;;2.83;85.33;98657.16;5086277;28;20067;-92
2023/11/27 02:42:28;;;;;;;4.43;2.08;;;;;;;2.01;86.13;98509.97;5075807;28;20094;-93
2023/11/27 02:44:57;;;;;;;5.40;2.33;;;;;;;2.64;85.38;98620.31;5077045;28;20051;-92
2023/11/27 02:47:23;;;;;;;4.65;2.20;;;;;;;1.71;86.32;98466.16;5073154;28;20041;-94
2023/11/27 02:49:52;;;;;;;9.00;2.20;;;;;;;1.69;86.69;98473.16;5078201;28;20037;-93
2023/11/27 02:52:24;;;;;;;6.65;3.08;;;;;;;2.16;85.48;98519.63;5081087;28;20048;-94
2023/11/27 02:54:55;;;;;;;6.75;3.17;;;;;;;1.75;86.57;98467.94;5078790;28;20055;-94
2023/11/27 02:57:23;;;;;;;8.63;2.92;;;;;;;2.61;86.90;98606.34;5077083;28;20049;-93
2023/11/27 02:59:51;;;;;;;6.90;3.00;;;;;;;2.29;86.81;98535.41;5076796;28;20044;-92
2023/11/27 03:02:17;;;;;;;5.85;2.60;;;;;;;2.75;85.71;98601.97;5076305;28;20394;-92
2023/11/27 03:04:43;;;;;;;5.20;2.80;;;;;;;2.63;86.32;98596.72;5082306;28;20497;-94
2023/11/27 03:07:13;;;;;;;5.25;2.60;;;;;;;1.58;87.47;98454.81;5077391;28;20067;-94
2023/11/27 03:09:39;;;;;;;5.78;2.80;;;;;;;2.07;87.96;98522.25;5073230;28;20052;-94
2023/11/27 03:12:05;;;;;;;8.10;3.95;;;;;;;1.90;88.86;98513.44;5077663;28;20371;-94
2023/11/27 03:14:34;;;;;;;8.25;3.15;;;;;;;1.69;87.95;98461.81;5076676;28;20036;-93
2023/11/27 03:17:05;;;;;;;5.03;2.30;;;;;;;2.20;86.43;98531.88;5075003;28;20047;-92
2023/11/27 03:19:36;;;;;;;6.68;2.13;;;;;;;2.58;86.66;98587.94;5077062;28;20075;-93
2023/11/27 03:22:02;;;;;;;7.07;3.22;;;;;;;1.79;87.18;98493.28;5078157;28;20041;-92
2023/11/27 03:24:30;;;;;;;5.68;2.42;;;;;;;2.61;87.16;98599.34;5082750;28;20040;-93
2023/11/27 03:26:58;;;;;;;4.80;2.42;;;;;;;1.64;86.54;98448.69;5076223;28;20043;-93
2023/11/27 03:29:29;;;;;;;5.07;2.28;;;;;;;2.06;87.32;98533.63;5080731;28;20036;-93
2023/11/27 03:31:58;;;;;;;5.15;2.67;;;;;;;2.10;89.00;98540.59;5076735;28;20132;-92
2023/11/27 03:34:25;;;;;;;4.32;2.42;;;;;;;1.44;88.56;98422.41;5074194;28;20048;-93
2023/11/27 03:36:52;;;;;;;5.00;3.00;;;;;;;2.31;88.79;98562.53;5076609;28;20374;-93
2023/11/27 03:39:21;;;;;;;6.28;2.72;;;;;;;1.53;88.86;98468.75;5075466;28;20078;-92
2023/11/27 03:41:50;;;;;;;7.40;3.50;;;;;;;1.99;88.69;98542.31;5074775;28;20044;-93
2023/11/27 03:44:15;;;;;;;4.80;2.60;;;;;;;1.43;88.23;98428.50;5076320;28;20417;-93
2023/11/27 03:46:41;;;;;;;5.65;3.00;;;;;;;2.71;87.82;98651.84;5076488;28;20037;-92
2023/11/27 03:49:07;;;;;;;10.32;3.63;;;;;;;2.01;87.36;98519.59;5074689;28;20044;-93
2023/11/27 03:51:38;;;;;;;8.45;3.00;;;;;;;1.99;87.07;98521.34;5074343;28;20450;-93
2023/11/27 03:54:04;;;;;;;7.55;2.42;;;;;;;1.37;89.10;98471.28;5077550;28;20040;-93
2023/11/27 03:56:32;;;;;;;5.85;2.42;;;;;;;1.72;93.33;98557.06;5071850;28;20129;-92
2023/11/27 03:58:58;;;;;;;8.45;2.35;;;;;;;1.33;91.37;98476.53;5076662;28;20036;-93
2023/11/27 04:01:27;;;;;;;4.18;2.03;;;;;;;1.70;94.36;98565.78;5078632;28;20107;-93
2023/11/27 04:03:56;;;;;;;5.38;2.45;;;;;;;1.73;98.19;98577.16;5084099;28;20062;-92
2023/11/27 04:06:23;;;;;;;5.45;2.08;;;;;;;0.94;99.05;98447.50;5080708;28;20123;-92
2023/11/27 04:08:50;;;;;;;8.00;2.85;;;;;;;1.06;100.00;98487.69;5079851;28;20050;-92
2023/11/27 04:11:19;;;;;;;6.20;2.75;;;;;;;1.08;98.89;98455.41;5078617;28;20097;-93
2023/11/27 04:13:45;;;;;;;5.22;2.13;;;;;;;1.81;97.95;98557.09;5083479;28;20059;-93
2023/11/27 04:16:11;;;;;;;6.13;2.80;;;;;;;1.56;97.00;98511.56;5078822;28;20131;-93
2023/11/27 04:18:37;;;;;;;5.47;2.55;;;;;;;1.54;98.00;98536.00;5085942;28;20078;-93
2023/11/27 04:21:04;;;;;;;5.22;2.40;;;;;;;2.15;96.02;98620.19;5080186;28;20051;-93
2023/11/27 04:23:30;;;;;;;6.28;3.17;;;;;;;1.79;96.65;98574.56;5083388;28;20511;-92
2023/11/27 04:26:00;;;;;;;4.35;2.20;;;;;;;0.75;100.00;98435.16;5081363;28;20132;-92
2023/11/27 04:28:28;;;;;;;5.55;2.38;;;;;;;1.98;98.76;98595.66;5084417;28;20047;-92
2023/11/27 04:30:54;;;;;;;7.13;2.53;;;;;;;1.59;97.47;98508.94;5081137;28;20078;-95
2023/11/27 04:33:20;;;;;;;5.35;2.17;;;;;;;1.33;95.30;98442.47;5081999;28;20052;-93
2023/11/27 04:35:49;;;;;;;4.38;1.98;;;;;;;2.18;94.87;98591.34;5081157;28;20040;-93
2023/11/27 04:38:18;;;;;;;3.72;1.73;;;;;;;1.28;96.32;98458.16;5076992;28;20063;-92
2023/11/27 04:40:44;;;;;;;4.90;2.00;;;;;;;1.75;99.32;98559.69;5080265;28;20039;-93
2023/11/27 04:43:11;;;;;;;5.65;1.92;;;;;;;2.12;98.37;98609.69;5079073;28;20139;-93
2023/11/27 04:45:40;;;;;;;5.95;2.03;;;;;;;1.90;97.72;98573.75;5079295;28;20036;-93
2023/11/27 04:48:08;;;;;;;4.35;2.05;;;;;;;2.30;96.28;98619.38;5072644;28;20192;-92
2023/11/27 04:50:40;;;;;;;4.68;2.30;;;;;;;1.23;94.67;98423.19;5084656;28;20135;-91
2023/11/27 04:53:06;;;;;;;5.30;2.30;;;;;;;1.75;94.78;98509.00;5084251;28;20440;-92
2023/11/27 04:56:36;;;;;;;5.45;2.22;;;;;;;2.32;95.09;98619.38;5079580;28;20048;-93
2023/11/27 04:59:05;;;;;;;4.38;1.83;;;;;;;1.92;95.08;98567.63;5079367;28;20028;-94
2023/11/27 05:01:32;;;;;;;4.40;2.15;;;;;;;1.15;95.96;98440.59;5078434;28;20127;-90
2023/11/27 05:03:58;;;;;;;7.60;3.30;;;;;;;1.67;95.38;98527.34;5082909;28;20036;-92
2023/11/27 05:06:28;;;;;;;8.48;3.50;;;;;;;1.38;95.09;98474.78;5082505;28;20060;-92
2023/11/27 05:08:54;;;;;;;9.73;3.42;;;;;;;2.41;94.02;98635.16;5082283;28;20047;-90
2023/11/27 05:11:20;;;;;;;6.78;2.78;;;;;;;2.51;93.65;98641.31;5078903;28;20059;-92
2023/11/27 05:13:53;;;;;;;8.00;3.17;;;;;;;1.36;92.92;98443.34;5079957;28;20044;-92
2023/11/27 05:16:21;;;;;;;9.07;4.20;;;;;;;1.59;95.00;98513.31;5078169;28;20040;-92
2023/11/27 05:18:47;;;;;;;6.82;3.38;;;;;;;1.71;97.60;98550.06;5080482;28;20036;-92
2023/11/27 05:21:16;;;;;;;6.70;3.97;;;;;;;1.14;97.23;98436.25;5082191;28;20135;-91
2023/11/27 05:23:42;;;;;;;6.60;3.05;;;;;;;1.70;95.65;98519.47;5074702;28;20047;-93
2023/11/27 05:26:13;;;;;;;6.10;3.20;;;;;;;1.78;95.93;98551.00;5070179;28;20040;-93
2023/11/27 05:28:40;;;;;;;7.35;3.60;;;;;;;2.07;94.44;98582.56;5072587;28;20036;-93
2023/11/27 05:31:07;;;;;;;7.47;3.67;;;;;;;2.06;94.88;98578.19;5076582;28;20097;-94
2023/11/27 05:37:02;;;;;;;5.88;2.63;;;;;;;2.28;96.27;98631.63;5075609;28;20094;-92
2023/11/27 05:39:29;;;;;;;7.90;3.45;;;;;;;1.76;97.27;98545.72;5086151;28;20035;-92
2023/11/27 05:41:57;;;;;;;8.93;3.10;;;;;;;1.70;98.14;98527.34;5083239;28;20047;-92
2023/11/27 05:44:24;;;;;;;7.03;2.70;;;;;;;1.72;99.55;98525.63;5081921;28;20040;-92
2023/11/27 05:46:50;;;;;;;6.50;2.63;;;;;;;2.45;97.57;98619.44;5084889;28;20036;-91
2023/11/27 05:49:15;;;;;;;5.85;2.88;;;;;;;1.89;98.38;98519.53;5079193;28;20040;-93
2023/11/27 05:51:46;;;;;;;7.20;2.95;;;;;;;1.93;98.73;98513.44;5080812;28;20396;-92
2023/11/27 05:54:24;;;;;;;7.88;2.50;;;;;;;1.62;97.70;98440.81;5078213;28;20139;-92
2023/11/27 05:56:50;;;;;;;8.23;3.42;;;;;;;2.57;97.52;98618.56;5086172;28;20032;-93
2023/11/27 05:59:19;;;;;;;7.32;3.70;;;;;;;2.53;96.91;98593.19;5083461;28;20517;-93
2023/11/27 06:01:45;;;;;;;7.63;3.67;;;;;;;1.66;95.43;98446.94;5082862;28;20044;-92
2023/11/27 06:04:13;;;;;;;10.65;4.35;;;;;;;2.62;96.66;98629.97;5080568;28;20052;-91
2023/11/27 06:06:40;;;;;;;5.28;2.92;;;;;;;2.28;96.05;98541.50;5079448;28;20040;-92
2023/11/27 06:09:08;;;;;;;7.68;3.38;;;;;;;2.08;94.78;98518.72;5080283;28;20032;-93
2023/11/27 06:11:36;;;;;;;9.75;4.32;;;;;;;1.61;95.73;98449.56;5083958;28;20043;-93
2023/11/27 06:14:02;;;;;;;9.07;4.07;;;;;;;2.75;95.49;98638.72;5085241;28;20036;-92
2023/11/27 06:16:42;;;;;;;8.35;3.85;;;;;;;1.51;95.33;98460.88;5084494;28;20055;-93
2023/11/27 06:19:15;;;;;;;8.82;3.85;;;;;;;1.50;100.00;98477.47;5099968;28;20116;-94
2023/11/27 06:21:42;;;;;;;6.15;3.30;;;;;;;1.97;99.93;98517.81;5101265;28;20067;-95
2023/11/27 06:24:11;;;;;;;;;;;;;;;2.73;99.20;98640.47;5103213;28;20078;-95
2023/11/27 06:26:38;;;;;;;8.82;4.18;;;;;;;1.69;99.06;98480.16;5102187;28;20385;-95
2023/11/27 06:29:07;;;;;;;10.60;3.97;;;;;;;2.77;99.94;98641.38;5098857;28;20036;-93
2023/11/27 06:31:39;;;;;;;9.25;4.32;;;;;;;2.84;98.55;98651.91;5092838;28;20143;-93
2023/11/27 06:34:08;;;;;;;9.18;4.60;;;;;;;1.97;95.46;98478.50;5084994;28;20043;-93
2023/11/27 06:36:40;;;;;;;9.48;5.00;;;;;;;2.09;92.71;98481.16;5086347;28;20060;-95
2023/11/27 06:39:16;;;;;;;12.38;5.45;;;;;;;2.77;93.95;98586.22;5091248;28;20044;-93
2023/11/27 06:41:47;;;;;;;12.57;5.28;;;;;;;1.90;94.78;98454.00;5088502;28;20104;-92
2023/11/27 06:44:17;;;;;;;10.18;4.43;;;;;;;1.91;94.83;98455.78;5085696;28;20064;-93
2023/11/27 06:46:59;;;;;;;11.23;5.18;;;;;;;2.08;94.50;98486.38;5092874;28;20062;-92
2023/11/27 06:49:33;;;;;;;10.05;4.55;;;;;;;2.07;94.59;98461.03;5088563;28;20046;-92
2023/11/27 06:52:01;;;;;;;10.25;4.57;;;;;;;3.19;94.40;98653.69;5088090;28;20039;-92
2023/11/27 06:54:48;;;;;;;17.23;6.60;;;;;;;2.21;93.81;98460.19;5102951;28;20050;-93
2023/11/27 06:57:35;;;;;;;11.43;5.10;;;;;;;2.31;90.23;98465.44;5083464;28;20044;-92
2023/11/27 07:00:10;;;;;;;12.52;5.07;;;;;;;3.20;91.85;98599.38;5103117;28;20063;-91
2023/11/27 07:02:44;;;;;;;15.60;5.75;;;;;;;3.63;91.33;98659.81;5083174;28;20058;-93
2023/11/27 07:05:13;;;;;;;13.55;6.15;;;;;;;3.47;90.58;98595.84;5078730;28;20055;-92
2023/11/27 07:07:58;;;;;;;16.00;6.10;;;;;;;2.60;89.99;98458.47;5092133;28;20031;-92
2023/11/27 07:11:24;;;;;;;12.63;6.32;;;;;;;2.70;89.67;98461.94;5083806;28;20024;-93
2023/11/27 07:13:54;;;;;;;10.07;5.13;;;;;;;2.96;88.57;98477.69;5083708;28;20048;-94
2023/11/27 07:16:23;;;;;;;15.20;5.32;;;;;;;3.46;85.79;98533.66;5089945;28;20394;-93
2023/11/27 07:18:50;;;;;;;11.23;5.18;;;;;;;3.01;84.79;98465.41;5093446;28;20127;-92
2023/11/27 07:21:19;;;;;;;9.07;4.70;;;;;;;3.16;84.55;98503.03;5085264;28;20064;-93
2023/11/27 07:23:57;;;;;;;11.40;4.50;;;;;;;3.58;83.58;98556.38;5084344;28;20136;-92
2023/11/27 07:26:26;;;;;;;10.35;5.13;;;;;;;2.87;83.45;98456.69;5083782;28;20517;-93
2023/11/27 07:29:01;;;;;;;11.65;4.80;;;;;;;4.01;83.62;98627.28;5074780;28;20080;-92
2023/11/27 07:31:31;;;;;;;10.20;5.05;;;;;;;3.38;82.02;98485.47;5086631;28;20044;-92
2023/11/27 07:34:03;;;;;;;13.35;6.18;;;;;;;3.36;82.17;98458.31;5088754;28;20060;-92
2023/11/27 07:36:37;;;;;;;8.13;4.82;;;;;;;3.47;82.34;98483.69;5086277;28;20098;-91
2023/11/27 07:39:07;;;;;;;11.95;5.75;;;;;;;3.59;81.91;98480.16;5081788;28;20048;-91
2023/11/27 07:41:39;;;;;;;13.23;6.13;;;;;;;4.10;81.46;98565.00;5086573;28;20031;-93
2023/11/27 07:44:08;;;;;;;11.85;5.03;;;;;;;3.90;80.06;98509.84;5088255;28;20047;-92
2023/11/27 07:46:37;;;;;;;16.42;6.32;;;;;;;3.68;79.22;98450.31;5087550;28;20103;-93
2023/11/27 07:49:10;;;;;;;14.65;6.07;;;;;;;4.13;79.27;98535.16;5084820;28;20036;-91
2023/11/27 07:51:40;;;;;;;10.27;5.68;;;;;;;3.89;79.85;98478.28;5084846;28;20040;-92
2023/11/27 07:54:12;;;;;;;16.33;7.25;;;;;;;4.01;79.76;98490.47;5084774;28;20097;-92
2023/11/27 07:56:53;;;;;;;14.07;7.28;;;;;;;4.19;80.08;98495.66;5083554;28;20097;-93
2023/11/27 07:59:27;;;;;;;19.48;9.02;;;;;;;4.24;76.61;98475.44;5086979;28;20044;-92
2023/11/27 08:01:58;;;;;;;20.58;8.80;;;;;;;4.18;76.53;98482.50;5095390;28;20073;-93
2023/11/27 08:04:32;;;;;;;21.50;10.15;;;;;;;5.09;77.24;98628.47;5080237;28;20048;-93
2023/11/27 08:07:10;;;;;;;15.05;7.20;;;;;;;5.01;77.21;98588.16;5094216;28;20036;-92
2023/11/27 08:09:38;;;;;;;14.55;6.45;;;;;;;4.77;75.67;98530.34;5088397;28;20044;-92
2023/11/27 08:12:05;;;;;;;19.52;7.05;;;;;;;4.37;75.04;98470.09;5084090;28;20066;-92
2023/11/27 08:14:35;;;;;;;20.45;8.98;;;;;;;4.25;76.35;98461.41;5092117;28;20070;-93
2023/11/27 08:17:05;;;;;;;20.05;9.05;;;;;;;5.24;77.58;98634.53;5087398;28;20036;-93
2023/11/27 08:19:37;;;;;;;17.02;8.02;;;;;;;4.42;77.88;98470.91;5086470;28;20040;-92
2023/11/27 08:22:16;;;;;;;13.73;6.90;;;;;;;4.49;76.99;98451.56;5088678;28;20107;-93
2023/11/27 08:24:49;;;;;;;11.68;6.30;;;;;;;5.63;74.76;98611.34;5097116;28;20116;-92
2023/11/27 08:27:16;;;;;;;15.02;7.15;;;;;;;4.64;74.52;98424.22;5085054;28;20119;-92
2023/11/27 08:29:54;;;;;;;13.73;7.05;;;;;;;5.36;75.23;98536.88;5088107;28;20496;-93
2023/11/27 08:32:23;;;;;;;12.38;7.10;;;;;;;5.41;74.28;98519.22;5089811;28;20044;-92
2023/11/27 08:34:50;;;;;;;15.25;6.57;;;;;;;5.70;75.18;98552.31;5091679;28;20044;-92
2023/11/27 08:37:16;;;;;;;11.95;6.90;;;;;;;5.20;75.47;98443.00;5091084;28;20442;-92
2023/11/27 08:39:51;;;;;;;13.57;7.75;;;;;;;5.36;75.46;98428.78;5086643;28;20476;-92
2023/11/27 08:42:18;;;;;;;18.38;8.02;;;;;;;5.37;74.25;98427.00;5089715;28;20036;-93
2023/11/27 08:44:54;;;;;;;17.80;8.18;;;;;;;5.90;73.08;98516.03;5086221;28;20071;-95
2023/11/27 08:47:25;;;;;;;13.07;7.47;;;;;;;5.42;72.67;98441.88;5089407;28;20127;-92
2023/11/27 08:49:58;;;;;;;18.33;7.65;;;;;;;5.51;72.42;98431.22;5090288;28;20044;-91
2023/11/27 08:52:29;;;;;;;22.13;9.50;;;;;;;5.59;72.36;98422.34;5088255;28;20079;-93
2023/11/27 08:54:58;;;;;;;16.95;8.80;;;;;;;5.93;71.65;98472.91;5097148;28;20135;-93
2023/11/27 08:57:25;;;;;;;21.13;9.32;;;;;;;6.37;72.09;98543.59;5094722;28;20078;-92
2023/11/27 08:59:53;;;;;;;22.95;9.70;;;;;;;5.81;72.69;98439.63;5083863;28;20048;-94
2023/11/27 09:02:21;;;;;;;21.45;10.07;;;;;;;5.65;70.77;98403.78;5085291;28;20040;-93
2023/11/27 09:04:50;;;;;;;23.77;12.68;;;;;;;6.21;69.54;98489.28;5094767;28;20036;-93
2023/11/27 09:07:21;;;;;;;20.95;9.80;;;;;;;7.01;69.98;98583.19;5086141;28;20036;-94
2023/11/27 09:09:54;;;;;;;14.93;7.55;;;;;;;6.82;68.92;98490.09;5078392;28;20041;-92
2023/11/27 09:12:31;;;;;;;8.50;5.70;;;;;;;6.46;66.98;98399.09;5086504;28;20043;-93
2023/11/27 09:18:07;;;;;;;16.10;6.47;;;;;;;7.47;66.31;98462.50;5074672;28;20045;-94
2023/11/27 09:20:43;;;;;;;11.60;6.47;;;;;;;7.53;65.13;98405.03;5081793;28;20404;-92
2023/11/27 09:23:11;;;;;;;14.10;7.10;;;;;;;7.79;64.22;98378.03;5081835;28;20112;-92
2023/11/27 09:25:40;;;;;;;12.10;6.95;;;;;;;8.37;63.35;98415.53;5080544;28;20502;-94
2023/11/27 09:28:06;;;;;;;10.82;6.70;;;;;;;8.33;62.53;98383.88;5085448;28;20032;-93
2023/11/27 09:30:40;;;;;;;13.20;6.38;;;;;;;8.33;61.46;98410.34;5091199;28;20043;-93
2023/11/27 09:33:07;;;;;;;14.95;5.88;;;;;;;8.96;62.25;98528.16;5088739;28;20117;-94
2023/11/27 09:35:35;;;;;;;11.13;5.95;;;;;;;8.10;61.84;98387.03;5087197;28;20044;-94
2023/11/27 09:38:11;;;;;;;12.80;6.80;;;;;;;8.09;62.13;98401.19;5090677;28;20622;-93
2023/11/27 09:40:42;;;;;;;11.63;6.63;;;;;;;8.04;62.53;98380.09;5087840;28;20041;-93
2023/11/27 09:43:11;;;;;;;13.43;7.10;;;;;;;8.00;63.16;98379.31;5085520;28;20049;-94
2023/11/27 09:45:55;;;;;;;10.82;6.47;;;;;;;8.10;63.10;98382.63;5088492;28;20064;-93
2023/11/27 09:48:25;;;;;;;13.43;7.53;;;;;;;8.64;62.63;98444.97;5071561;28;20055;-93
2023/11/27 09:51:36;;;;;;;13.15;8.18;;;;;;;8.19;62.98;98360.34;5091584;28;20091;-93
2023/11/27 09:54:09;;;;;;;15.25;8.88;;;;;;;8.06;63.27;98335.06;5055832;28;20494;-92
2023/11/27 09:56:39;;;;;;;16.13;9.25;;;;;;;8.24;62.71;98379.66;5071619;28;20075;-92
2023/11/27 09:59:16;;;;;;;19.40;9.57;;;;;;;8.70;63.81;98504.91;5069589;28;20058;-93
2023/11/27 10:01:54;;;;;;;21.10;9.90;;;;;;;8.63;65.08;98514.75;5068856;28;20059;-94
2023/11/27 10:04:20;;;;;;;29.45;11.25;;;;;;;7.72;65.20;98354.34;5070129;28;20040;-94
2023/11/27 10:06:55;;;;;;;23.83;10.63;;;;;;;7.65;65.32;98345.69;5070216;28;20116;-93
2023/11/27 10:09:44;;;;;;;22.23;10.15;;;;;;;7.52;65.66;98317.75;5067175;28;20033;-93
2023/11/27 10:12:28;;;;;;;21.10;9.00;;;;;;;7.61;65.46;98334.31;5070067;28;20049;-93
2023/11/27 10:15:11;;;;;;;15.15;8.55;;;;;;;7.79;65.80;98363.94;5068743;28;20040;-94
2023/11/27 10:17:43;;;;;;;20.45;10.10;;;;;;;8.34;66.36;98442.09;5068565;28;20038;-90
2023/11/27 10:20:12;;;;;;;21.83;9.60;;;;;;;8.35;66.96;98442.94;5069288;28;20155;-93
2023/11/27 10:22:42;;;;;;;20.92;10.05;;;;;;;7.82;67.08;98353.25;5069194;28;20098;-93
2023/11/27 10:25:13;;;;;;;19.98;9.93;;;;;;;7.74;67.23;98320.78;5064940;28;20055;-90
2023/11/27 10:27:42;;;;;;;15.05;8.20;;;;;;;7.79;67.13;98303.03;5069704;28;20062;-93
2023/11/27 10:30:18;;;;;;;9.95;4.93;;;;;;;8.14;66.51;98436.38;5064984;28;20059;-94
2023/11/27 10:32:52;;;;;;;12.27;4.88;;;;;;;8.20;66.42;98397.38;5067620;28;20102;-93
2023/11/27 10:35:24;;;;;;;8.65;3.60;;;;;;;7.69;64.43;98281.19;5067884;28;20064;-92
2023/11/27 10:37:55;;;;;;;8.82;4.75;;;;;;;7.60;65.18;98281.41;5068532;28;20040;-92
2023/11/27 10:40:27;;;;;;;11.18;4.97;;;;;;;7.80;65.15;98283.59;5067953;28;20041;-93
2023/11/27 10:43:00;;;;;;;7.32;4.57;;;;;;;7.83;64.96;98262.38;5068502;28;20040;-93
2023/11/27 10:45:30;;;;;;;9.52;4.38;;;;;;;7.75;65.37;98261.66;5066661;28;20041;-93
2023/11/27 10:48:08;;;;;;;8.63;4.47;;;;;;;7.86;66.15;98267.56;5068033;28;20127;-93
2023/11/27 10:50:45;;;;;;;11.70;4.63;;;;;;;7.70;66.60;98266.19;5067421;28;20401;-93
2023/11/27 10:53:13;;;;;;;16.60;5.78;;;;;;;8.30;68.14;98423.66;5063627;28;20147;-93
2023/11/27 10:55:44;;;;;;;9.98;4.55;;;;;;;7.78;68.96;98285.41;5064997;28;20032;-91
2023/11/27 10:58:14;;;;;;;14.32;5.47;;;;;;;8.26;69.53;98371.66;5058934;28;20072;-93
2023/11/27 11:00:56;;;;;;;13.75;5.88;;;;;;;7.72;68.77;98244.09;5057676;28;20037;-93
2023/11/27 11:03:32;;;;;;;13.55;6.50;;;;;;;8.82;68.98;98399.41;5048795;28;20036;-92
2023/11/27 11:06:00;;;;;;;12.10;6.20;;;;;;;8.99;68.68;98411.38;5049347;28;20045;-94
2023/11/27 11:08:32;;;;;;;9.23;4.43;;;;;;;8.13;67.95;98243.94;5046281;28;20449;-94
2023/11/27 11:11:06;;;;;;;10.02;5.50;;;;;;;8.38;67.90;98257.44;5047189;28;20100;-93
2023/11/27 11:13:38;;;;;;;18.25;8.27;;;;;;;8.20;66.73;98249.06;5045180;28;20376;-93
2023/11/27 11:16:15;;;;;;;20.70;8.68;;;;;;;8.19;67.05;98228.78;5043947;28;20530;-92
2023/11/27 11:18:52;;;;;;;20.98;9.68;;;;;;;8.29;67.31;98223.25;5048486;28;20395;-93
2023/11/27 11:21:39;;;;;;;23.00;8.93;;;;;;;8.30;66.91;98224.97;5047662;28;20044;-93
2023/11/27 11:24:18;;;;;;;21.95;9.23;;;;;;;8.54;68.26;98255.28;5053596;28;20158;-93
2023/11/27 11:27:01;;;;;;;31.92;13.20;;;;;;;8.30;69.21;98217.88;5045207;28;20047;-94
2023/11/27 11:29:33;;;;;;;18.83;9.93;;;;;;;9.12;68.77;98335.84;5059667;28;20528;-95
2023/11/27 11:32:16;;;;;;;20.95;10.95;;;;;;;8.56;68.39;98206.59;5051980;28;20032;-92
2023/11/27 11:35:03;;;;;;;31.92;11.15;;;;;;;8.91;68.49;98249.81;5048748;28;20108;-93
2023/11/27 11:37:53;;;;;;;30.33;13.88;;;;;;;8.63;67.92;98205.53;5051410;28;20037;-94
2023/11/27 11:40:35;;;;;;;34.55;12.18;;;;;;;8.71;68.22;98193.84;5047062;28;20047;-95
2023/11/27 11:43:05;;;;;;;22.60;10.48;;;;;;;8.73;68.44;98187.59;5043496;28;20029;-95
2023/11/27 11:45:35;;;;;;;20.85;9.45;;;;;;;8.81;68.71;98206.78;5048732;28;20037;-93
2023/11/27 11:48:07;;;;;;;;;;;;;;;9.74;66.98;98345.56;5048473;28;20041;-95
2023/11/27 11:50:40;;;;;;;10.73;5.65;;;;;;;9.45;66.39;98288.03;5039624;28;19921;-93
2023/11/27 11:53:42;;;;;;;12.70;6.68;;;;;;;8.80;66.69;98182.97;5043411;28;20053;-93
2023/11/27 11:56:26;;;;;;;14.75;8.23;;;;;;;8.89;67.30;98187.13;5044048;28;20045;-93
2023/11/27 11:58:57;;;;;;;13.88;7.70;;;;;;;8.97;67.03;98190.44;5056864;28;20063;-93
2023/11/27 12:01:32;;;;;;;13.82;7.45;;;;;;;8.89;66.64;98166.81;5063937;28;20448;-93
2023/11/27 12:04:08;;;;;;;79.38;33.88;;;;;;;9.03;66.46;98158.44;5063990;28;20159;-93